sensor_id;sensor_type;location;lat;lon;timestamp;P1;durP1;ratioP1;P2;durP2;ratioP2
10902;SDS011;5504;47.312;11.060;2023-03-03T00:01:21;8.23;;;5.90;;
10902;SDS011;5504;47.312;11.060;2023-03-03T00:03:51;9.00;;;5.90;;
10902;SDS011;5504;47.312;11.060;2023-03-03T00:06:17;7.90;;;6.30;;
10902;SDS011;5504;47.312;11.060;2023-03-03T00:08:43;9.50;;;5.83;;
10902;SDS011;5504;47.312;11.060;2023-03-03T00:11:09;9.17;;;5.80;;
10902;SDS011;5504;47.312;11.060;2023-03-03T00:16:14;8.60;;;5.83;;
10902;SDS011;5504;47.312;11.060;2023-03-03T00:18:46;8.90;;;5.67;;
10902;SDS011;5504;47.312;11.060;2023-03-03T00:21:21;10.13;;;6.33;;
10902;SDS011;5504;47.312;11.060;2023-03-03T00:26:39;8.27;;;5.50;;
10902;SDS011;5504;47.312;11.060;2023-03-03T00:29:26;9.17;;;5.67;;
10902;SDS011;5504;47.312;11.060;2023-03-03T00:35:16;8.77;;;5.80;;
10902;SDS011;5504;47.312;11.060;2023-03-03T00:38:32;8.93;;;6.00;;
10902;SDS011;5504;47.312;11.060;2023-03-03T00:40:41;8.10;;;5.67;;
10902;SDS011;5504;47.312;11.060;2023-03-03T00:45:49;9.43;;;5.73;;
10902;SDS011;5504;47.312;11.060;2023-03-03T00:48:27;8.23;;;5.90;;
10902;SDS011;5504;47.312;11.060;2023-03-03T00:50:54;8.83;;;5.47;;
10902;SDS011;5504;47.312;11.060;2023-03-03T00:53:25;10.10;;;6.07;;
10902;SDS011;5504;47.312;11.060;2023-03-03T00:55:55;8.70;;;6.03;;
10902;SDS011;5504;47.312;11.060;2023-03-03T00:58:22;8.80;;;5.83;;
10902;SDS011;5504;47.312;11.060;2023-03-03T01:00:49;9.37;;;5.83;;
10902;SDS011;5504;47.312;11.060;2023-03-03T01:03:17;8.80;;;5.83;;
10902;SDS011;5504;47.312;11.060;2023-03-03T01:05:45;8.50;;;5.90;;
10902;SDS011;5504;47.312;11.060;2023-03-03T01:08:12;10.20;;;7.10;;
10902;SDS011;5504;47.312;11.060;2023-03-03T01:10:42;10.43;;;7.07;;
10902;SDS011;5504;47.312;11.060;2023-03-03T01:13:20;10.87;;;6.97;;
10902;SDS011;5504;47.312;11.060;2023-03-03T01:15:49;9.27;;;6.20;;
10902;SDS011;5504;47.312;11.060;2023-03-03T01:18:15;10.97;;;6.33;;
10902;SDS011;5504;47.312;11.060;2023-03-03T01:20:41;11.77;;;6.37;;
10902;SDS011;5504;47.312;11.060;2023-03-03T01:23:07;9.13;;;5.97;;
10902;SDS011;5504;47.312;11.060;2023-03-03T01:25:33;8.20;;;5.70;;
10902;SDS011;5504;47.312;11.060;2023-03-03T01:27:59;7.80;;;6.03;;
10902;SDS011;5504;47.312;11.060;2023-03-03T01:30:25;7.97;;;6.20;;
10902;SDS011;5504;47.312;11.060;2023-03-03T01:32:51;10.40;;;7.10;;
10902;SDS011;5504;47.312;11.060;2023-03-03T01:35:17;9.93;;;6.63;;
10902;SDS011;5504;47.312;11.060;2023-03-03T01:37:43;11.77;;;7.03;;
10902;SDS011;5504;47.312;11.060;2023-03-03T01:40:13;11.47;;;6.70;;
10902;SDS011;5504;47.312;11.060;2023-03-03T01:42:47;10.03;;;7.00;;
10902;SDS011;5504;47.312;11.060;2023-03-03T01:45:26;8.37;;;6.20;;
10902;SDS011;5504;47.312;11.060;2023-03-03T01:50:49;9.73;;;6.30;;
10902;SDS011;5504;47.312;11.060;2023-03-03T01:53:26;9.13;;;6.50;;
10902;SDS011;5504;47.312;11.060;2023-03-03T01:55:57;8.87;;;6.17;;
10902;SDS011;5504;47.312;11.060;2023-03-03T02:00:56;9.97;;;6.33;;
10902;SDS011;5504;47.312;11.060;2023-03-03T02:03:26;10.10;;;6.53;;
10902;SDS011;5504;47.312;11.060;2023-03-03T02:05:52;11.83;;;7.73;;
10902;SDS011;5504;47.312;11.060;2023-03-03T02:08:22;12.13;;;7.80;;
10902;SDS011;5504;47.312;11.060;2023-03-03T02:10:52;11.87;;;7.17;;
10902;SDS011;5504;47.312;11.060;2023-03-03T02:13:19;9.17;;;6.47;;
10902;SDS011;5504;47.312;11.060;2023-03-03T02:15:45;9.90;;;6.50;;
10902;SDS011;5504;47.312;11.060;2023-03-03T02:18:12;10.83;;;6.97;;
10902;SDS011;5504;47.312;11.060;2023-03-03T02:23:37;10.83;;;6.47;;
10902;SDS011;5504;47.312;11.060;2023-03-03T02:28:43;10.60;;;7.27;;
10902;SDS011;5504;47.312;11.060;2023-03-03T02:31:10;8.77;;;6.47;;
10902;SDS011;5504;47.312;11.060;2023-03-03T02:33:40;10.80;;;6.77;;
10902;SDS011;5504;47.312;11.060;2023-03-03T02:36:09;10.33;;;6.43;;
10902;SDS011;5504;47.312;11.060;2023-03-03T02:38:47;8.03;;;5.90;;
10902;SDS011;5504;47.312;11.060;2023-03-03T02:42:07;8.67;;;6.50;;
10902;SDS011;5504;47.312;11.060;2023-03-03T02:44:16;9.70;;;6.57;;
10902;SDS011;5504;47.312;11.060;2023-03-03T02:46:44;10.37;;;7.17;;
10902;SDS011;5504;47.312;11.060;2023-03-03T02:49:12;11.63;;;6.63;;
10902;SDS011;5504;47.312;11.060;2023-03-03T02:51:40;10.13;;;6.83;;
10902;SDS011;5504;47.312;11.060;2023-03-03T02:54:06;10.57;;;6.80;;
10902;SDS011;5504;47.312;11.060;2023-03-03T02:56:33;9.90;;;6.93;;
10902;SDS011;5504;47.312;11.060;2023-03-03T02:58:59;11.63;;;7.63;;
10902;SDS011;5504;47.312;11.060;2023-03-03T03:01:25;9.83;;;7.03;;
10902;SDS011;5504;47.312;11.060;2023-03-03T03:03:51;11.93;;;6.90;;
10902;SDS011;5504;47.312;11.060;2023-03-03T03:06:17;10.97;;;6.57;;
10902;SDS011;5504;47.312;11.060;2023-03-03T03:08:43;9.53;;;6.50;;
10902;SDS011;5504;47.312;11.060;2023-03-03T03:11:09;11.77;;;7.30;;
10902;SDS011;5504;47.312;11.060;2023-03-03T03:13:34;9.87;;;7.03;;
10902;SDS011;5504;47.312;11.060;2023-03-03T03:16:00;10.70;;;6.90;;
10902;SDS011;5504;47.312;11.060;2023-03-03T03:18:26;12.17;;;7.70;;
10902;SDS011;5504;47.312;11.060;2023-03-03T03:20:52;9.30;;;6.80;;
10902;SDS011;5504;47.312;11.060;2023-03-03T03:23:18;9.97;;;7.00;;
10902;SDS011;5504;47.312;11.060;2023-03-03T03:25:46;8.87;;;6.27;;
10902;SDS011;5504;47.312;11.060;2023-03-03T03:28:15;10.17;;;6.70;;
10902;SDS011;5504;47.312;11.060;2023-03-03T03:30:42;10.13;;;7.33;;
10902;SDS011;5504;47.312;11.060;2023-03-03T03:33:10;9.47;;;6.80;;
10902;SDS011;5504;47.312;11.060;2023-03-03T03:35:35;12.20;;;7.53;;
10902;SDS011;5504;47.312;11.060;2023-03-03T03:38:02;10.93;;;7.57;;
10902;SDS011;5504;47.312;11.060;2023-03-03T03:40:27;9.70;;;6.97;;
10902;SDS011;5504;47.312;11.060;2023-03-03T03:42:53;11.77;;;6.97;;
10902;SDS011;5504;47.312;11.060;2023-03-03T03:45:20;9.73;;;7.27;;
10902;SDS011;5504;47.312;11.060;2023-03-03T03:47:46;10.70;;;7.00;;
10902;SDS011;5504;47.312;11.060;2023-03-03T03:50:12;10.73;;;6.90;;
10902;SDS011;5504;47.312;11.060;2023-03-03T03:52:37;9.90;;;7.00;;
10902;SDS011;5504;47.312;11.060;2023-03-03T03:55:03;9.80;;;6.50;;
10902;SDS011;5504;47.312;11.060;2023-03-03T03:57:29;11.10;;;6.87;;
10902;SDS011;5504;47.312;11.060;2023-03-03T03:59:55;10.93;;;6.50;;
10902;SDS011;5504;47.312;11.060;2023-03-03T04:02:21;10.20;;;6.30;;
10902;SDS011;5504;47.312;11.060;2023-03-03T04:04:47;8.23;;;6.33;;
10902;SDS011;5504;47.312;11.060;2023-03-03T04:07:13;11.67;;;6.90;;
10902;SDS011;5504;47.312;11.060;2023-03-03T04:09:38;9.67;;;6.63;;
10902;SDS011;5504;47.312;11.060;2023-03-03T04:12:04;10.00;;;6.47;;
10902;SDS011;5504;47.312;11.060;2023-03-03T04:14:30;9.80;;;6.50;;
10902;SDS011;5504;47.312;11.060;2023-03-03T04:16:55;9.33;;;6.47;;
10902;SDS011;5504;47.312;11.060;2023-03-03T04:19:21;11.47;;;7.73;;
10902;SDS011;5504;47.312;11.060;2023-03-03T04:21:47;9.93;;;7.77;;
10902;SDS011;5504;47.312;11.060;2023-03-03T04:24:13;11.07;;;7.07;;
10902;SDS011;5504;47.312;11.060;2023-03-03T04:26:38;9.40;;;6.80;;
10902;SDS011;5504;47.312;11.060;2023-03-03T04:29:04;9.23;;;6.57;;
10902;SDS011;5504;47.312;11.060;2023-03-03T04:31:31;10.77;;;7.00;;
10902;SDS011;5504;47.312;11.060;2023-03-03T04:33:56;9.60;;;6.60;;
10902;SDS011;5504;47.312;11.060;2023-03-03T04:36:22;12.37;;;6.80;;
10902;SDS011;5504;47.312;11.060;2023-03-03T04:38:48;11.47;;;7.57;;
10902;SDS011;5504;47.312;11.060;2023-03-03T04:41:14;12.23;;;7.90;;
10902;SDS011;5504;47.312;11.060;2023-03-03T04:43:40;9.37;;;6.93;;
10902;SDS011;5504;47.312;11.060;2023-03-03T04:46:06;11.67;;;7.37;;
10902;SDS011;5504;47.312;11.060;2023-03-03T04:48:31;10.30;;;6.80;;
10902;SDS011;5504;47.312;11.060;2023-03-03T04:50:57;10.20;;;7.27;;
10902;SDS011;5504;47.312;11.060;2023-03-03T04:53:23;10.53;;;7.00;;
10902;SDS011;5504;47.312;11.060;2023-03-03T04:55:52;10.97;;;7.50;;
10902;SDS011;5504;47.312;11.060;2023-03-03T04:58:18;9.33;;;6.67;;
10902;SDS011;5504;47.312;11.060;2023-03-03T05:00:45;9.23;;;6.73;;
10902;SDS011;5504;47.312;11.060;2023-03-03T05:03:11;9.60;;;6.93;;
10902;SDS011;5504;47.312;11.060;2023-03-03T05:05:38;10.80;;;7.07;;
10902;SDS011;5504;47.312;11.060;2023-03-03T05:08:05;10.60;;;6.83;;
10902;SDS011;5504;47.312;11.060;2023-03-03T05:10:31;9.40;;;6.90;;
10902;SDS011;5504;47.312;11.060;2023-03-03T05:12:56;7.60;;;6.20;;
10902;SDS011;5504;47.312;11.060;2023-03-03T05:15:22;10.07;;;6.47;;
10902;SDS011;5504;47.312;11.060;2023-03-03T05:17:48;9.90;;;6.80;;
10902;SDS011;5504;47.312;11.060;2023-03-03T05:20:13;11.10;;;6.80;;
10902;SDS011;5504;47.312;11.060;2023-03-03T05:22:39;9.93;;;6.63;;
10902;SDS011;5504;47.312;11.060;2023-03-03T05:25:05;12.50;;;6.73;;
10902;SDS011;5504;47.312;11.060;2023-03-03T05:27:31;10.97;;;6.80;;
10902;SDS011;5504;47.312;11.060;2023-03-03T05:29:57;11.07;;;6.90;;
10902;SDS011;5504;47.312;11.060;2023-03-03T05:32:23;10.50;;;6.53;;
10902;SDS011;5504;47.312;11.060;2023-03-03T05:34:48;10.47;;;6.63;;
10902;SDS011;5504;47.312;11.060;2023-03-03T05:37:14;10.10;;;6.33;;
10902;SDS011;5504;47.312;11.060;2023-03-03T05:39:40;10.37;;;6.37;;
10902;SDS011;5504;47.312;11.060;2023-03-03T05:42:08;10.77;;;6.70;;
10902;SDS011;5504;47.312;11.060;2023-03-03T05:44:37;10.57;;;6.90;;
10902;SDS011;5504;47.312;11.060;2023-03-03T05:47:02;10.10;;;7.07;;
10902;SDS011;5504;47.312;11.060;2023-03-03T05:49:28;11.07;;;6.63;;
10902;SDS011;5504;47.312;11.060;2023-03-03T05:51:54;9.00;;;6.30;;
10902;SDS011;5504;47.312;11.060;2023-03-03T05:54:19;10.13;;;7.10;;
10902;SDS011;5504;47.312;11.060;2023-03-03T05:56:45;8.77;;;6.43;;
10902;SDS011;5504;47.312;11.060;2023-03-03T05:59:11;11.17;;;7.20;;
10902;SDS011;5504;47.312;11.060;2023-03-03T06:01:36;9.43;;;6.60;;
10902;SDS011;5504;47.312;11.060;2023-03-03T06:04:02;9.80;;;6.80;;
10902;SDS011;5504;47.312;11.060;2023-03-03T06:06:28;11.37;;;7.30;;
10902;SDS011;5504;47.312;11.060;2023-03-03T06:08:54;11.73;;;7.70;;
10902;SDS011;5504;47.312;11.060;2023-03-03T06:11:19;10.83;;;7.63;;
10902;SDS011;5504;47.312;11.060;2023-03-03T06:13:45;11.77;;;8.30;;
10902;SDS011;5504;47.312;11.060;2023-03-03T06:16:11;10.83;;;7.87;;
10902;SDS011;5504;47.312;11.060;2023-03-03T06:18:36;11.50;;;7.60;;
10902;SDS011;5504;47.312;11.060;2023-03-03T06:21:02;8.57;;;6.47;;
10902;SDS011;5504;47.312;11.060;2023-03-03T06:23:28;9.93;;;6.90;;
10902;SDS011;5504;47.312;11.060;2023-03-03T06:25:54;8.97;;;6.70;;
10902;SDS011;5504;47.312;11.060;2023-03-03T06:28:19;11.33;;;7.47;;
10902;SDS011;5504;47.312;11.060;2023-03-03T06:30:45;9.63;;;7.00;;
10902;SDS011;5504;47.312;11.060;2023-03-03T06:33:11;10.50;;;7.43;;
10902;SDS011;5504;47.312;11.060;2023-03-03T06:35:37;10.70;;;7.60;;
10902;SDS011;5504;47.312;11.060;2023-03-03T06:38:03;10.43;;;7.43;;
10902;SDS011;5504;47.312;11.060;2023-03-03T06:40:29;11.53;;;7.77;;
10902;SDS011;5504;47.312;11.060;2023-03-03T06:42:54;11.17;;;7.60;;
10902;SDS011;5504;47.312;11.060;2023-03-03T06:45:20;9.23;;;7.10;;
10902;SDS011;5504;47.312;11.060;2023-03-03T06:47:46;11.33;;;7.70;;
10902;SDS011;5504;47.312;11.060;2023-03-03T06:50:12;8.67;;;6.47;;
10902;SDS011;5504;47.312;11.060;2023-03-03T06:52:39;10.77;;;7.90;;
10902;SDS011;5504;47.312;11.060;2023-03-03T06:55:09;11.70;;;9.13;;
10902;SDS011;5504;47.312;11.060;2023-03-03T06:57:37;14.93;;;9.60;;
10902;SDS011;5504;47.312;11.060;2023-03-03T07:02:45;11.67;;;8.47;;
10902;SDS011;5504;47.312;11.060;2023-03-03T07:05:15;11.50;;;8.17;;
10902;SDS011;5504;47.312;11.060;2023-03-03T07:07:42;11.90;;;9.43;;
10902;SDS011;5504;47.312;11.060;2023-03-03T07:10:15;12.67;;;8.47;;
10902;SDS011;5504;47.312;11.060;2023-03-03T07:12:46;11.43;;;8.20;;
10902;SDS011;5504;47.312;11.060;2023-03-03T07:15:54;11.47;;;8.20;;
10902;SDS011;5504;47.312;11.060;2023-03-03T07:18:00;13.17;;;9.10;;
10902;SDS011;5504;47.312;11.060;2023-03-03T07:20:29;12.53;;;9.50;;
10902;SDS011;5504;47.312;11.060;2023-03-03T07:22:59;11.90;;;7.90;;
10902;SDS011;5504;47.312;11.060;2023-03-03T07:27:59;13.93;;;9.40;;
10902;SDS011;5504;47.312;11.060;2023-03-03T07:30:45;12.73;;;9.40;;
10902;SDS011;5504;47.312;11.060;2023-03-03T07:35:59;11.87;;;8.23;;
10902;SDS011;5504;47.312;11.060;2023-03-03T07:38:37;12.17;;;8.37;;
10902;SDS011;5504;47.312;11.060;2023-03-03T07:41:18;12.37;;;9.30;;
10902;SDS011;5504;47.312;11.060;2023-03-03T07:43:48;13.90;;;9.60;;
10902;SDS011;5504;47.312;11.060;2023-03-03T07:46:41;13.07;;;8.23;;
10902;SDS011;5504;47.312;11.060;2023-03-03T07:49:13;12.53;;;8.13;;
10902;SDS011;5504;47.312;11.060;2023-03-03T07:51:55;10.37;;;8.20;;
10902;SDS011;5504;47.312;11.060;2023-03-03T07:54:34;12.43;;;8.00;;
10902;SDS011;5504;47.312;11.060;2023-03-03T07:57:11;11.93;;;8.27;;
10902;SDS011;5504;47.312;11.060;2023-03-03T07:59:54;14.83;;;9.87;;
10902;SDS011;5504;47.312;11.060;2023-03-03T08:02:37;18.73;;;11.20;;
10902;SDS011;5504;47.312;11.060;2023-03-03T08:13:00;16.23;;;10.90;;
10902;SDS011;5504;47.312;11.060;2023-03-03T08:15:34;17.10;;;10.23;;
10902;SDS011;5504;47.312;11.060;2023-03-03T08:18:01;16.10;;;10.00;;
10902;SDS011;5504;47.312;11.060;2023-03-03T08:20:49;17.47;;;10.87;;
10902;SDS011;5504;47.312;11.060;2023-03-03T08:23:17;15.50;;;9.73;;
10902;SDS011;5504;47.312;11.060;2023-03-03T08:25:45;16.57;;;10.63;;
10902;SDS011;5504;47.312;11.060;2023-03-03T08:28:11;15.87;;;10.17;;
10902;SDS011;5504;47.312;11.060;2023-03-03T08:30:38;14.67;;;10.93;;
10902;SDS011;5504;47.312;11.060;2023-03-03T08:33:04;16.40;;;11.27;;
10902;SDS011;5504;47.312;11.060;2023-03-03T08:35:29;17.33;;;10.73;;
10902;SDS011;5504;47.312;11.060;2023-03-03T08:37:55;14.53;;;10.93;;
10902;SDS011;5504;47.312;11.060;2023-03-03T08:40:21;14.80;;;10.37;;
10902;SDS011;5504;47.312;11.060;2023-03-03T08:42:47;14.07;;;10.53;;
10902;SDS011;5504;47.312;11.060;2023-03-03T08:45:13;14.63;;;10.50;;
10902;SDS011;5504;47.312;11.060;2023-03-03T08:47:39;13.97;;;9.17;;
10902;SDS011;5504;47.312;11.060;2023-03-03T08:50:07;14.67;;;8.57;;
10902;SDS011;5504;47.312;11.060;2023-03-03T08:52:34;13.93;;;8.20;;
10902;SDS011;5504;47.312;11.060;2023-03-03T08:55:00;12.90;;;8.00;;
10902;SDS011;5504;47.312;11.060;2023-03-03T08:57:26;12.17;;;7.30;;
10902;SDS011;5504;47.312;11.060;2023-03-03T08:59:52;13.60;;;7.90;;
10902;SDS011;5504;47.312;11.060;2023-03-03T09:02:17;13.57;;;7.27;;
10902;SDS011;5504;47.312;11.060;2023-03-03T09:04:43;11.93;;;7.40;;
10902;SDS011;5504;47.312;11.060;2023-03-03T09:07:09;11.80;;;7.10;;
10902;SDS011;5504;47.312;11.060;2023-03-03T09:09:34;9.50;;;7.67;;
10902;SDS011;5504;47.312;11.060;2023-03-03T09:12:24;12.37;;;8.23;;
10902;SDS011;5504;47.312;11.060;2023-03-03T09:14:52;9.73;;;7.50;;
10902;SDS011;5504;47.312;11.060;2023-03-03T09:17:27;11.97;;;8.07;;
10902;SDS011;5504;47.312;11.060;2023-03-03T09:19:57;11.90;;;7.50;;
10902;SDS011;5504;47.312;11.060;2023-03-03T09:22:27;11.70;;;7.57;;
10902;SDS011;5504;47.312;11.060;2023-03-03T09:24:54;12.83;;;7.33;;
10902;SDS011;5504;47.312;11.060;2023-03-03T09:27:33;10.13;;;7.13;;
10902;SDS011;5504;47.312;11.060;2023-03-03T09:30:47;11.40;;;6.60;;
10902;SDS011;5504;47.312;11.060;2023-03-03T09:32:47;8.33;;;5.97;;
10902;SDS011;5504;47.312;11.060;2023-03-03T09:38:06;9.43;;;6.07;;
10902;SDS011;5504;47.312;11.060;2023-03-03T09:46:24;9.53;;;6.70;;
10902;SDS011;5504;47.312;11.060;2023-03-03T09:49:15;9.43;;;6.73;;
10902;SDS011;5504;47.312;11.060;2023-03-03T10:11:37;10.37;;;6.40;;
10902;SDS011;5504;47.312;11.060;2023-03-03T10:14:38;7.37;;;5.70;;
10902;SDS011;5504;47.312;11.060;2023-03-03T10:22:52;10.20;;;5.97;;
10902;SDS011;5504;47.312;11.060;2023-03-03T10:25:39;9.10;;;5.53;;
10902;SDS011;5504;47.312;11.060;2023-03-03T10:31:20;8.17;;;5.30;;
10902;SDS011;5504;47.312;11.060;2023-03-03T10:50:55;8.43;;;6.10;;
10902;SDS011;5504;47.312;11.060;2023-03-03T10:53:52;10.10;;;6.37;;
10902;SDS011;5504;47.312;11.060;2023-03-03T10:59:34;10.77;;;7.50;;
10902;SDS011;5504;47.312;11.060;2023-03-03T11:10:22;9.90;;;7.03;;
10902;SDS011;5504;47.312;11.060;2023-03-03T11:15:29;11.53;;;8.00;;
10902;SDS011;5504;47.312;11.060;2023-03-03T11:20:57;10.97;;;7.93;;
10902;SDS011;5504;47.312;11.060;2023-03-03T11:31:55;13.33;;;8.07;;
10902;SDS011;5504;47.312;11.060;2023-03-03T11:37:25;13.63;;;8.70;;
10902;SDS011;5504;47.312;11.060;2023-03-03T11:39:46;10.77;;;8.60;;
10902;SDS011;5504;47.312;11.060;2023-03-03T11:42:18;13.60;;;9.37;;
10902;SDS011;5504;47.312;11.060;2023-03-03T11:47:48;13.27;;;9.60;;
10902;SDS011;5504;47.312;11.060;2023-03-03T11:50:28;14.37;;;8.77;;
10902;SDS011;5504;47.312;11.060;2023-03-03T11:53:25;12.83;;;9.23;;
10902;SDS011;5504;47.312;11.060;2023-03-03T11:56:06;13.00;;;9.80;;
10902;SDS011;5504;47.312;11.060;2023-03-03T11:58:42;12.63;;;9.87;;
10902;SDS011;5504;47.312;11.060;2023-03-03T12:06:43;15.50;;;10.40;;
10902;SDS011;5504;47.312;11.060;2023-03-03T12:12:50;13.67;;;10.73;;
10902;SDS011;5504;47.312;11.060;2023-03-03T12:15:32;16.87;;;10.60;;
10902;SDS011;5504;47.312;11.060;2023-03-03T12:20:43;16.67;;;10.93;;
10902;SDS011;5504;47.312;11.060;2023-03-03T12:28:36;16.57;;;11.67;;
10902;SDS011;5504;47.312;11.060;2023-03-03T12:33:58;15.50;;;11.47;;
10902;SDS011;5504;47.312;11.060;2023-03-03T12:36:57;16.77;;;11.37;;
10902;SDS011;5504;47.312;11.060;2023-03-03T12:50:51;16.63;;;12.50;;
10902;SDS011;5504;47.312;11.060;2023-03-03T12:56:37;17.00;;;12.17;;
10902;SDS011;5504;47.312;11.060;2023-03-03T13:04:44;19.67;;;14.20;;
10902;SDS011;5504;47.312;11.060;2023-03-03T13:07:53;21.60;;;14.53;;
10902;SDS011;5504;47.312;11.060;2023-03-03T13:10:58;18.83;;;13.77;;
10902;SDS011;5504;47.312;11.060;2023-03-03T13:16:10;23.33;;;15.17;;
10902;SDS011;5504;47.312;11.060;2023-03-03T13:21:35;21.00;;;14.83;;
10902;SDS011;5504;47.312;11.060;2023-03-03T13:26:50;25.13;;;15.73;;
10902;SDS011;5504;47.312;11.060;2023-03-03T13:32:13;22.57;;;15.90;;
10902;SDS011;5504;47.312;11.060;2023-03-03T13:37:46;23.07;;;16.23;;
10902;SDS011;5504;47.312;11.060;2023-03-03T13:40:17;24.20;;;16.93;;
10902;SDS011;5504;47.312;11.060;2023-03-03T13:42:57;21.33;;;15.40;;
10902;SDS011;5504;47.312;11.060;2023-03-03T13:50:52;28.10;;;17.77;;
10902;SDS011;5504;47.312;11.060;2023-03-03T13:53:56;24.53;;;16.57;;
10902;SDS011;5504;47.312;11.060;2023-03-03T13:59:25;22.87;;;15.77;;
10902;SDS011;5504;47.312;11.060;2023-03-03T14:04:31;22.13;;;16.13;;
10902;SDS011;5504;47.312;11.060;2023-03-03T14:07:20;24.03;;;16.50;;
10902;SDS011;5504;47.312;11.060;2023-03-03T14:10:02;25.07;;;17.33;;
10902;SDS011;5504;47.312;11.060;2023-03-03T14:18:01;24.43;;;16.63;;
10902;SDS011;5504;47.312;11.060;2023-03-03T14:20:46;25.33;;;17.33;;
10902;SDS011;5504;47.312;11.060;2023-03-03T14:23:18;25.73;;;17.10;;
10902;SDS011;5504;47.312;11.060;2023-03-03T14:25:49;23.10;;;16.70;;
10902;SDS011;5504;47.312;11.060;2023-03-03T14:28:15;35.37;;;23.03;;
10902;SDS011;5504;47.312;11.060;2023-03-03T14:30:43;24.90;;;17.07;;
10902;SDS011;5504;47.312;11.060;2023-03-03T14:35:36;24.20;;;16.83;;
10902;SDS011;5504;47.312;11.060;2023-03-03T14:38:17;24.10;;;17.70;;
10902;SDS011;5504;47.312;11.060;2023-03-03T14:40:46;24.63;;;17.57;;
10902;SDS011;5504;47.312;11.060;2023-03-03T14:45:44;23.17;;;16.00;;
10902;SDS011;5504;47.312;11.060;2023-03-03T14:48:17;23.47;;;16.13;;
10902;SDS011;5504;47.312;11.060;2023-03-03T14:55:45;21.57;;;15.57;;
10902;SDS011;5504;47.312;11.060;2023-03-03T15:01:12;26.47;;;17.40;;
10902;SDS011;5504;47.312;11.060;2023-03-03T15:03:43;24.30;;;16.57;;
10902;SDS011;5504;47.312;11.060;2023-03-03T15:06:13;25.20;;;15.93;;
10902;SDS011;5504;47.312;11.060;2023-03-03T15:12:02;26.40;;;19.07;;
10902;SDS011;5504;47.312;11.060;2023-03-03T15:15:16;26.03;;;17.07;;
10902;SDS011;5504;47.312;11.060;2023-03-03T15:17:35;25.00;;;16.17;;
10902;SDS011;5504;47.312;11.060;2023-03-03T15:33:45;26.90;;;17.53;;
10902;SDS011;5504;47.312;11.060;2023-03-03T15:41:55;26.53;;;17.93;;
10902;SDS011;5504;47.312;11.060;2023-03-03T15:44:40;27.53;;;17.97;;
10902;SDS011;5504;47.312;11.060;2023-03-03T15:53:11;25.10;;;17.50;;
10902;SDS011;5504;47.312;11.060;2023-03-03T15:55:54;29.03;;;17.77;;
10902;SDS011;5504;47.312;11.060;2023-03-03T16:04:12;26.63;;;17.80;;
10902;SDS011;5504;47.312;11.060;2023-03-03T16:06:55;28.53;;;18.90;;
10902;SDS011;5504;47.312;11.060;2023-03-03T16:20:37;41.60;;;26.53;;
10902;SDS011;5504;47.312;11.060;2023-03-03T16:23:22;37.53;;;23.27;;
10902;SDS011;5504;47.312;11.060;2023-03-03T16:26:27;36.40;;;22.40;;
10902;SDS011;5504;47.312;11.060;2023-03-03T16:29:18;35.10;;;24.43;;
10902;SDS011;5504;47.312;11.060;2023-03-03T16:43:03;33.30;;;20.60;;
10902;SDS011;5504;47.312;11.060;2023-03-03T16:45:42;31.67;;;20.73;;
10902;SDS011;5504;47.312;11.060;2023-03-03T16:48:23;34.90;;;20.73;;
10902;SDS011;5504;47.312;11.060;2023-03-03T17:06:42;36.87;;;21.50;;
10902;SDS011;5504;47.312;11.060;2023-03-03T17:20:55;33.87;;;22.20;;
10902;SDS011;5504;47.312;11.060;2023-03-03T17:26:29;37.03;;;22.67;;
10902;SDS011;5504;47.312;11.060;2023-03-03T17:42:47;41.77;;;26.40;;
10902;SDS011;5504;47.312;11.060;2023-03-03T17:45:37;32.40;;;21.10;;
10902;SDS011;5504;47.312;11.060;2023-03-03T17:50:55;35.43;;;21.87;;
10902;SDS011;5504;47.312;11.060;2023-03-03T17:59:10;33.17;;;20.90;;
10902;SDS011;5504;47.312;11.060;2023-03-03T18:12:15;30.90;;;19.03;;
10902;SDS011;5504;47.312;11.060;2023-03-03T18:17:33;27.97;;;17.90;;
10902;SDS011;5504;47.312;11.060;2023-03-03T18:20:35;30.70;;;18.97;;
10902;SDS011;5504;47.312;11.060;2023-03-03T18:23:19;34.17;;;20.57;;
10902;SDS011;5504;47.312;11.060;2023-03-03T18:25:58;34.70;;;21.43;;
10902;SDS011;5504;47.312;11.060;2023-03-03T18:28:43;32.57;;;20.93;;
10902;SDS011;5504;47.312;11.060;2023-03-03T18:31:43;29.70;;;20.00;;
10902;SDS011;5504;47.312;11.060;2023-03-03T18:34:30;32.23;;;21.57;;
10902;SDS011;5504;47.312;11.060;2023-03-03T18:37:06;31.77;;;20.10;;
10902;SDS011;5504;47.312;11.060;2023-03-03T18:44:41;30.00;;;19.63;;
10902;SDS011;5504;47.312;11.060;2023-03-03T18:47:11;28.93;;;18.70;;
10902;SDS011;5504;47.312;11.060;2023-03-03T18:52:18;29.10;;;18.40;;
10902;SDS011;5504;47.312;11.060;2023-03-03T18:55:04;30.10;;;18.30;;
10902;SDS011;5504;47.312;11.060;2023-03-03T18:58:03;28.57;;;17.90;;
10902;SDS011;5504;47.312;11.060;2023-03-03T19:08:54;24.93;;;16.77;;
10902;SDS011;5504;47.312;11.060;2023-03-03T19:16:49;26.60;;;17.13;;
10902;SDS011;5504;47.312;11.060;2023-03-03T19:19:16;28.00;;;17.00;;
10902;SDS011;5504;47.312;11.060;2023-03-03T19:21:45;31.83;;;18.77;;
10902;SDS011;5504;47.312;11.060;2023-03-03T19:54:50;28.30;;;16.27;;
10902;SDS011;5504;47.312;11.060;2023-03-03T20:00:44;28.37;;;16.73;;
10902;SDS011;5504;47.312;11.060;2023-03-03T20:14:52;31.73;;;17.83;;
10902;SDS011;5504;47.312;11.060;2023-03-03T20:20:28;27.90;;;17.30;;
10902;SDS011;5504;47.312;11.060;2023-03-03T20:23:29;29.80;;;16.90;;
10902;SDS011;5504;47.312;11.060;2023-03-03T20:31:41;28.63;;;17.40;;
10902;SDS011;5504;47.312;11.060;2023-03-03T20:39:57;27.70;;;16.80;;
10902;SDS011;5504;47.312;11.060;2023-03-03T20:42:40;23.47;;;15.20;;
10902;SDS011;5504;47.312;11.060;2023-03-03T20:51:06;26.07;;;16.07;;
10902;SDS011;5504;47.312;11.060;2023-03-03T20:56:41;24.53;;;15.00;;
10902;SDS011;5504;47.312;11.060;2023-03-03T20:59:36;26.90;;;16.03;;
10902;SDS011;5504;47.312;11.060;2023-03-03T21:04:44;28.67;;;16.17;;
10902;SDS011;5504;47.312;11.060;2023-03-03T21:07:21;28.83;;;17.43;;
10902;SDS011;5504;47.312;11.060;2023-03-03T21:09:49;25.20;;;15.97;;
10902;SDS011;5504;47.312;11.060;2023-03-03T21:12:25;29.90;;;17.20;;
10902;SDS011;5504;47.312;11.060;2023-03-03T21:15:02;29.67;;;17.03;;
10902;SDS011;5504;47.312;11.060;2023-03-03T21:17:35;27.90;;;17.93;;
10902;SDS011;5504;47.312;11.060;2023-03-03T21:22:52;31.93;;;19.00;;
10902;SDS011;5504;47.312;11.060;2023-03-03T21:36:58;32.17;;;18.40;;
10902;SDS011;5504;47.312;11.060;2023-03-03T21:38:58;30.50;;;17.57;;
10902;SDS011;5504;47.312;11.060;2023-03-03T21:41:26;29.33;;;16.90;;
10902;SDS011;5504;47.312;11.060;2023-03-03T21:43:52;30.27;;;18.10;;
10902;SDS011;5504;47.312;11.060;2023-03-03T21:46:22;31.60;;;17.53;;
10902;SDS011;5504;47.312;11.060;2023-03-03T21:48:52;27.80;;;16.30;;
10902;SDS011;5504;47.312;11.060;2023-03-03T21:51:17;31.23;;;18.13;;
10902;SDS011;5504;47.312;11.060;2023-03-03T21:53:45;32.07;;;18.07;;
10902;SDS011;5504;47.312;11.060;2023-03-03T21:56:11;32.33;;;18.90;;
10902;SDS011;5504;47.312;11.060;2023-03-03T21:58:40;28.90;;;17.27;;
10902;SDS011;5504;47.312;11.060;2023-03-03T22:01:06;31.00;;;17.90;;
10902;SDS011;5504;47.312;11.060;2023-03-03T22:03:32;30.53;;;18.73;;
10902;SDS011;5504;47.312;11.060;2023-03-03T22:05:58;30.57;;;18.50;;
10902;SDS011;5504;47.312;11.060;2023-03-03T22:08:26;31.10;;;18.07;;
10902;SDS011;5504;47.312;11.060;2023-03-03T22:10:52;31.10;;;18.53;;
10902;SDS011;5504;47.312;11.060;2023-03-03T22:13:23;28.20;;;17.67;;
10902;SDS011;5504;47.312;11.060;2023-03-03T22:15:50;26.30;;;16.30;;